createdAt,value
2018-12-21T00:01:14.948Z,10.90
2018-12-21T00:03:43.066Z,10.90
2018-12-21T00:06:11.185Z,10.90
2018-12-21T00:08:39.323Z,10.90
2018-12-21T00:11:07.455Z,10.90
2018-12-21T00:13:35.575Z,10.90
2018-12-21T00:16:03.684Z,10.90
2018-12-21T00:18:31.808Z,10.90
2018-12-21T00:20:59.929Z,10.90
2018-12-21T00:23:28.044Z,10.90
2018-12-21T00:25:56.154Z,11.00
2018-12-21T00:28:24.271Z,10.90
2018-12-21T00:30:57.917Z,11.00
2018-12-21T00:33:31.634Z,11.00
2018-12-21T00:36:05.337Z,11.00
2018-12-21T00:38:38.980Z,11.00
2018-12-21T00:41:12.697Z,10.90
2018-12-21T00:43:42.808Z,11.00
2018-12-21T00:46:11.123Z,11.00
2018-12-21T00:48:39.256Z,11.00
2018-12-21T00:51:07.367Z,11.00
2018-12-21T00:53:35.555Z,11.00
2018-12-21T00:56:03.665Z,10.90
2018-12-21T00:58:31.794Z,11.00
2018-12-21T01:00:59.900Z,11.00
2018-12-21T01:03:28.026Z,11.00
2018-12-21T01:05:56.140Z,11.00
2018-12-21T01:08:24.257Z,11.00
2018-12-21T01:10:52.374Z,11.00
2018-12-21T01:13:20.495Z,11.00
2018-12-21T01:15:48.607Z,11.00
2018-12-21T01:18:17.315Z,11.00
2018-12-21T01:20:45.429Z,11.00
2018-12-21T01:23:13.551Z,11.00
2018-12-21T01:25:41.659Z,11.00
2018-12-21T01:28:09.775Z,11.00
2018-12-21T01:30:37.969Z,11.00
2018-12-21T01:33:06.097Z,11.00
2018-12-21T01:35:34.222Z,11.00
2018-12-21T01:38:02.337Z,11.00
2018-12-21T01:40:30.461Z,11.00
2018-12-21T01:42:58.584Z,11.10
2018-12-21T01:45:26.712Z,11.10
2018-12-21T01:47:54.832Z,11.10
2018-12-21T01:50:22.958Z,11.10
2018-12-21T01:52:51.067Z,11.10
2018-12-21T01:55:19.185Z,11.10
2018-12-21T01:57:47.332Z,11.10
2018-12-21T02:00:15.485Z,11.10
2018-12-21T02:02:43.620Z,11.10
2018-12-21T02:05:11.755Z,11.10
2018-12-21T02:07:39.868Z,11.10
2018-12-21T02:10:07.981Z,11.10
2018-12-21T02:12:36.087Z,11.10
2018-12-21T02:15:04.352Z,11.10
2018-12-21T02:17:32.470Z,11.10
2018-12-21T02:20:00.592Z,11.10
2018-12-21T02:22:28.701Z,11.10
2018-12-21T02:24:56.815Z,11.10
2018-12-21T02:27:24.923Z,11.10
2018-12-21T02:29:53.046Z,11.10
2018-12-21T02:32:21.170Z,11.10
2018-12-21T02:34:49.310Z,11.20
2018-12-21T02:37:17.408Z,11.20
2018-12-21T02:39:45.528Z,11.20
2018-12-21T02:42:13.646Z,11.20
2018-12-21T02:44:41.756Z,11.20
2018-12-21T02:47:09.879Z,11.20
2018-12-21T02:49:38.007Z,11.20
2018-12-21T02:52:06.120Z,11.20
2018-12-21T02:54:34.254Z,11.20
2018-12-21T02:57:02.352Z,11.20
2018-12-21T02:59:30.481Z,11.20
2018-12-21T03:01:58.582Z,11.20
2018-12-21T03:04:26.704Z,11.20
2018-12-21T03:06:54.806Z,11.20
2018-12-21T03:09:22.912Z,11.20
2018-12-21T03:11:51.038Z,11.20
2018-12-21T03:14:19.158Z,11.20
2018-12-21T03:16:47.271Z,11.20
2018-12-21T03:19:15.377Z,11.20
2018-12-21T03:21:43.496Z,11.20
2018-12-21T03:24:11.606Z,11.20
2018-12-21T03:26:39.730Z,11.20
2018-12-21T03:29:07.848Z,11.20
2018-12-21T03:31:35.994Z,11.20
2018-12-21T03:34:04.255Z,11.20
2018-12-21T03:36:32.450Z,11.20
2018-12-21T03:39:00.558Z,11.20
2018-12-21T03:41:28.668Z,11.20
2018-12-21T03:43:56.774Z,11.20
2018-12-21T03:46:24.898Z,11.20
2018-12-21T03:48:53.002Z,11.20
2018-12-21T03:51:21.121Z,11.20
2018-12-21T03:53:49.231Z,11.30
2018-12-21T03:56:17.341Z,11.30
2018-12-21T03:58:45.458Z,11.30
2018-12-21T04:01:13.589Z,11.30
2018-12-21T04:03:41.695Z,11.30
2018-12-21T04:06:09.820Z,11.30
2018-12-21T04:08:37.926Z,11.30
2018-12-21T04:11:06.051Z,11.30
2018-12-21T04:13:34.155Z,11.30
2018-12-21T04:16:02.278Z,11.30
2018-12-21T04:18:30.389Z,11.30
2018-12-21T04:20:58.500Z,11.30
2018-12-21T04:23:26.623Z,11.30
2018-12-21T04:25:54.752Z,11.30
2018-12-21T04:28:22.872Z,11.30
2018-12-21T04:30:50.992Z,11.30
2018-12-21T04:33:19.098Z,11.40
2018-12-21T04:35:47.218Z,11.40
2018-12-21T04:38:15.325Z,11.40
2018-12-21T04:40:43.458Z,11.40
2018-12-21T04:43:11.561Z,11.40
2018-12-21T04:45:39.677Z,11.40
2018-12-21T04:48:07.777Z,11.40
2018-12-21T04:50:35.895Z,11.40
2018-12-21T04:53:04.003Z,11.40
2018-12-21T04:55:32.118Z,11.40
2018-12-21T04:58:00.221Z,11.40
2018-12-21T05:00:28.479Z,11.40
2018-12-21T05:02:56.611Z,11.40
2018-12-21T05:05:24.734Z,11.40
2018-12-21T05:07:52.850Z,11.40
2018-12-21T05:10:20.970Z,11.40
2018-12-21T05:12:49.126Z,11.40
2018-12-21T05:15:17.243Z,11.40
2018-12-21T05:17:45.375Z,11.50
2018-12-21T05:20:13.486Z,11.50
2018-12-21T05:22:41.611Z,11.50
2018-12-21T05:25:09.717Z,11.50
2018-12-21T05:27:37.832Z,11.50
2018-12-21T05:30:08.416Z,11.50
2018-12-21T05:32:36.566Z,11.50
2018-12-21T05:35:05.028Z,11.50
2018-12-21T05:37:33.144Z,11.50
2018-12-21T05:40:01.253Z,11.50
2018-12-21T05:42:29.368Z,11.50
2018-12-21T05:44:57.474Z,11.60
2018-12-21T05:47:25.662Z,11.60
2018-12-21T05:49:53.852Z,11.60
2018-12-21T05:52:21.959Z,11.60
2018-12-21T05:54:50.061Z,11.60
2018-12-21T05:57:18.181Z,11.60
2018-12-21T05:59:46.287Z,11.60
2018-12-21T06:02:14.397Z,11.60
2018-12-21T06:04:42.875Z,11.60
2018-12-21T06:07:10.991Z,11.60
2018-12-21T06:09:39.108Z,11.60
2018-12-21T06:12:07.244Z,11.60
2018-12-21T06:14:35.480Z,11.60
2018-12-21T06:17:03.606Z,11.60
2018-12-21T06:19:31.707Z,11.60
2018-12-21T06:21:59.829Z,11.60
2018-12-21T06:24:27.934Z,11.60
2018-12-21T06:26:56.069Z,11.60
2018-12-21T06:29:24.187Z,11.60
2018-12-21T06:31:52.323Z,11.60
2018-12-21T06:34:20.419Z,11.60
2018-12-21T06:36:48.535Z,11.60
2018-12-21T06:39:16.648Z,11.60
2018-12-21T06:41:44.767Z,11.60
2018-12-21T06:44:12.959Z,11.60
2018-12-21T06:46:41.121Z,11.60
2018-12-21T06:49:09.226Z,11.60
2018-12-21T06:51:37.347Z,11.60
2018-12-21T06:54:05.447Z,11.60
2018-12-21T06:56:33.560Z,11.60
2018-12-21T06:59:01.678Z,11.60
2018-12-21T07:01:29.794Z,11.60
2018-12-21T07:03:57.897Z,11.60
2018-12-21T07:06:26.006Z,11.60
2018-12-21T07:08:54.126Z,11.60
2018-12-21T07:11:22.236Z,11.60
2018-12-21T07:13:50.342Z,11.60
2018-12-21T07:16:18.467Z,11.60
2018-12-21T07:18:46.572Z,11.60
2018-12-21T07:21:14.694Z,11.60
2018-12-21T07:23:42.797Z,11.60
2018-12-21T07:26:10.940Z,11.60
2018-12-21T07:28:39.083Z,11.60
2018-12-21T07:31:07.507Z,11.60
2018-12-21T07:33:35.619Z,11.60
2018-12-21T07:36:08.578Z,11.60
2018-12-21T07:38:33.883Z,11.60
2018-12-21T07:41:01.987Z,11.60
2018-12-21T07:43:30.096Z,11.60
2018-12-21T07:45:58.212Z,11.60
2018-12-21T07:48:26.344Z,11.60
2018-12-21T07:50:54.441Z,11.60
2018-12-21T07:53:22.566Z,11.60
2018-12-21T07:55:50.664Z,11.60
2018-12-21T07:58:18.785Z,11.60
2018-12-21T08:00:46.912Z,11.60
2018-12-21T08:03:15.136Z,11.60
2018-12-21T08:05:43.256Z,11.60
2018-12-21T08:08:11.382Z,11.60
2018-12-21T08:10:39.495Z,11.70
2018-12-21T08:13:07.617Z,11.70
2018-12-21T08:15:35.719Z,11.70
2018-12-21T08:18:03.837Z,11.60
2018-12-21T08:20:31.944Z,11.70
2018-12-21T08:23:00.068Z,11.70
2018-12-21T08:25:28.178Z,11.70
2018-12-21T08:27:56.283Z,11.70
2018-12-21T08:30:24.393Z,11.70
2018-12-21T08:32:52.501Z,11.70
2018-12-21T08:35:20.609Z,11.70
2018-12-21T08:37:48.718Z,11.70
2018-12-21T08:40:16.824Z,11.70
2018-12-21T08:42:44.942Z,11.70
2018-12-21T08:45:13.055Z,11.70
2018-12-21T08:47:41.181Z,11.70
2018-12-21T08:50:09.298Z,11.70
2018-12-21T08:52:37.427Z,11.70
2018-12-21T08:55:05.526Z,11.80
2018-12-21T08:57:33.637Z,11.70
2018-12-21T09:00:01.737Z,11.80
2018-12-21T09:02:29.849Z,11.70
2018-12-21T09:04:57.949Z,11.70
2018-12-21T09:07:26.068Z,11.70
2018-12-21T09:09:54.165Z,11.70
2018-12-21T09:12:22.303Z,11.70
2018-12-21T09:14:50.417Z,11.70
2018-12-21T09:17:18.546Z,11.70
2018-12-21T09:19:46.682Z,11.70
2018-12-21T09:22:14.866Z,11.70
2018-12-21T09:24:42.994Z,11.80
2018-12-21T09:27:11.105Z,11.80
2018-12-21T09:29:39.254Z,11.70
2018-12-21T09:32:07.491Z,11.70
2018-12-21T09:34:35.593Z,11.70
2018-12-21T09:37:03.705Z,11.80
2018-12-21T09:39:31.826Z,11.70
2018-12-21T09:41:59.944Z,11.80
2018-12-21T09:44:28.067Z,11.80
2018-12-21T09:46:56.183Z,11.80
2018-12-21T09:49:24.288Z,11.80
2018-12-21T09:51:52.407Z,11.80
2018-12-21T09:54:20.545Z,11.80
2018-12-21T09:56:48.651Z,11.80
2018-12-21T09:59:16.777Z,11.80
2018-12-21T10:01:44.900Z,11.80
2018-12-21T10:04:13.036Z,11.80
2018-12-21T10:06:41.145Z,11.80
2018-12-21T10:09:09.310Z,11.80
2018-12-21T10:11:37.417Z,11.80
2018-12-21T10:14:05.556Z,11.80
2018-12-21T10:16:33.661Z,11.80
2018-12-21T10:19:01.789Z,11.80
2018-12-21T10:21:29.916Z,11.80
2018-12-21T10:23:58.036Z,11.80
2018-12-21T10:26:26.160Z,11.90
2018-12-21T10:28:54.301Z,11.90
2018-12-21T10:31:22.420Z,11.90
2018-12-21T10:33:50.547Z,11.90
2018-12-21T10:36:18.665Z,11.90
2018-12-21T10:38:46.821Z,11.90
2018-12-21T10:41:15.019Z,11.90
2018-12-21T10:43:43.145Z,11.90
2018-12-21T10:46:11.253Z,11.90
2018-12-21T10:48:39.382Z,11.90
2018-12-21T10:51:07.501Z,11.90
2018-12-21T10:53:35.651Z,12.00
2018-12-21T10:56:03.760Z,12.00
2018-12-21T10:58:31.883Z,12.00
2018-12-21T11:00:59.994Z,12.00
2018-12-21T11:03:28.104Z,12.00
2018-12-21T11:05:56.234Z,12.00
2018-12-21T11:08:24.354Z,12.00
2018-12-21T11:10:52.461Z,12.10
2018-12-21T11:13:20.591Z,12.10
2018-12-21T11:15:48.729Z,12.10
2018-12-21T11:18:16.850Z,12.10
2018-12-21T11:20:44.959Z,12.10
2018-12-21T11:23:13.116Z,12.10
2018-12-21T11:25:41.227Z,12.10
2018-12-21T11:28:09.345Z,12.10
2018-12-21T11:30:37.501Z,12.10
2018-12-21T11:33:05.639Z,12.20
2018-12-21T11:35:33.745Z,12.20
2018-12-21T11:38:01.866Z,12.20
2018-12-21T11:40:29.988Z,12.20
2018-12-21T11:42:58.104Z,12.20
2018-12-21T11:45:26.205Z,12.30
2018-12-21T11:47:54.330Z,12.30
2018-12-21T11:50:22.450Z,12.30
2018-12-21T11:52:50.570Z,12.30
2018-12-21T11:55:18.714Z,12.30
2018-12-21T11:57:46.841Z,12.30
2018-12-21T12:00:14.945Z,12.40
2018-12-21T12:02:43.077Z,12.40
2018-12-21T12:05:11.192Z,12.40
2018-12-21T12:07:39.334Z,12.40
2018-12-21T12:10:08.121Z,12.40
2018-12-21T12:12:36.226Z,12.50
2018-12-21T12:15:06.276Z,12.50
2018-12-21T12:17:34.385Z,12.50
2018-12-21T12:20:02.597Z,12.50
2018-12-21T12:22:30.707Z,12.50
2018-12-21T12:24:58.820Z,12.60
2018-12-21T12:27:26.922Z,12.50
2018-12-21T12:30:17.337Z,12.50
2018-12-21T12:32:46.105Z,12.60
2018-12-21T12:35:14.231Z,12.60
2018-12-21T12:37:42.338Z,12.60
2018-12-21T12:40:10.466Z,12.70
2018-12-21T12:42:38.564Z,12.60
2018-12-21T12:45:07.449Z,12.70
2018-12-21T12:47:35.559Z,12.70
2018-12-21T12:50:04.251Z,12.70
2018-12-21T12:52:33.198Z,12.70
2018-12-21T12:55:02.799Z,12.80
2018-12-21T12:57:31.526Z,12.70
2018-12-21T12:59:59.678Z,12.80
2018-12-21T13:02:27.786Z,12.80
2018-12-21T13:04:55.921Z,12.80
2018-12-21T13:07:24.020Z,12.80
2018-12-21T13:09:52.142Z,12.80
2018-12-21T13:12:20.248Z,12.80
2018-12-21T13:14:48.356Z,12.90
2018-12-21T13:17:16.470Z,12.90
2018-12-21T13:19:44.590Z,12.90
2018-12-21T13:22:12.689Z,12.90
2018-12-21T13:24:40.802Z,12.90
2018-12-21T13:27:08.891Z,12.90
2018-12-21T13:29:37.008Z,13.00
2018-12-21T13:32:05.106Z,13.00
2018-12-21T13:34:33.216Z,13.00
2018-12-21T13:37:01.326Z,13.00
2018-12-21T13:39:29.436Z,13.10
2018-12-21T13:41:57.545Z,13.10
2018-12-21T13:44:25.667Z,13.10
2018-12-21T13:46:53.779Z,13.10
2018-12-21T13:49:21.896Z,13.10
2018-12-21T13:51:49.992Z,13.10
2018-12-21T13:54:18.981Z,13.10
2018-12-21T13:56:47.092Z,13.20
2018-12-21T13:59:15.212Z,13.20
2018-12-21T14:01:43.332Z,13.20
2018-12-21T14:04:11.460Z,13.20
2018-12-21T14:06:39.581Z,13.20
2018-12-21T14:09:07.702Z,13.30
2018-12-21T14:11:35.928Z,13.30
2018-12-21T14:14:04.278Z,13.30
2018-12-21T14:16:32.377Z,13.30
2018-12-21T14:19:00.493Z,13.30
2018-12-21T14:21:28.606Z,13.30
2018-12-21T14:23:56.719Z,13.30
2018-12-21T14:26:24.824Z,13.40
2018-12-21T14:28:52.949Z,13.40
2018-12-21T14:31:21.068Z,13.40
2018-12-21T14:33:49.190Z,13.40
2018-12-21T14:36:17.292Z,13.40
2018-12-21T14:38:45.409Z,13.40
2018-12-21T14:41:13.509Z,13.50
2018-12-21T14:43:41.617Z,13.40
2018-12-21T14:46:09.735Z,13.50
2018-12-21T14:48:37.835Z,13.50
2018-12-21T14:51:05.949Z,13.50
2018-12-21T14:53:34.055Z,13.50
2018-12-21T14:56:02.166Z,13.50
2018-12-21T14:58:30.275Z,13.50
2018-12-21T15:00:58.430Z,13.50
2018-12-21T15:03:26.546Z,13.50
2018-12-21T15:05:54.650Z,13.50
2018-12-21T15:08:22.762Z,13.50
2018-12-21T15:10:50.877Z,13.50
2018-12-21T15:13:18.979Z,13.60
2018-12-21T15:15:47.112Z,13.50
2018-12-21T15:18:15.231Z,13.60
2018-12-21T15:20:43.349Z,13.60
2018-12-21T15:23:11.491Z,13.60
2018-12-21T15:25:46.062Z,13.60
2018-12-21T15:28:09.857Z,13.60
2018-12-21T15:30:37.990Z,13.60
2018-12-21T15:33:06.185Z,13.60
2018-12-21T15:35:34.298Z,13.60
2018-12-21T15:38:02.401Z,13.60
2018-12-21T15:40:30.637Z,13.60
2018-12-21T15:42:58.747Z,13.60
2018-12-21T15:45:26.876Z,13.60
2018-12-21T15:47:54.998Z,13.60
2018-12-21T15:50:23.109Z,13.60
2018-12-21T15:52:51.215Z,13.60
2018-12-21T15:55:19.341Z,13.70
2018-12-21T15:57:47.475Z,13.60
2018-12-21T16:00:16.787Z,13.70
2018-12-21T16:02:45.134Z,13.70
2018-12-21T16:05:13.271Z,13.70
2018-12-21T16:07:41.386Z,13.70
2018-12-21T16:10:10.437Z,13.70
2018-12-21T16:12:38.546Z,13.70
2018-12-21T16:15:06.659Z,13.70
2018-12-21T16:17:34.778Z,13.70
2018-12-21T16:20:03.728Z,13.70
2018-12-21T16:22:31.825Z,13.70
2018-12-21T16:24:59.961Z,13.70
2018-12-21T16:27:28.175Z,13.70
2018-12-21T16:29:56.306Z,13.70
2018-12-21T16:32:24.451Z,13.70
2018-12-21T16:34:52.557Z,13.70
2018-12-21T16:37:20.674Z,13.70
2018-12-21T16:39:49.055Z,13.80
2018-12-21T16:42:17.159Z,13.80
2018-12-21T16:44:45.279Z,13.80
2018-12-21T16:47:13.401Z,13.80
2018-12-21T16:49:41.532Z,13.80
2018-12-21T16:52:09.648Z,13.80
2018-12-21T16:54:37.848Z,13.80
2018-12-21T16:57:06.026Z,13.80
2018-12-21T16:59:34.161Z,13.80
2018-12-21T17:02:02.282Z,13.90
2018-12-21T17:04:30.401Z,13.90
2018-12-21T17:06:58.523Z,13.90
2018-12-21T17:09:26.642Z,13.90
2018-12-21T17:11:56.304Z,13.90
2018-12-21T17:14:24.414Z,13.90
2018-12-21T17:16:52.706Z,13.90
2018-12-21T17:19:21.059Z,13.90
2018-12-21T17:21:49.190Z,13.90
2018-12-21T17:24:17.295Z,13.90
2018-12-21T17:26:45.413Z,13.90
2018-12-21T17:29:13.526Z,13.90
2018-12-21T17:31:41.644Z,14.00
2018-12-21T17:34:09.740Z,14.00
2018-12-21T17:36:38.051Z,14.00
2018-12-21T17:39:07.604Z,14.00
2018-12-21T17:41:35.730Z,14.00
2018-12-21T17:44:03.824Z,14.00
2018-12-21T17:46:31.938Z,14.00
2018-12-21T17:49:00.047Z,14.00
2018-12-21T17:51:28.169Z,14.10
2018-12-21T17:53:56.368Z,14.10
2018-12-21T17:56:29.844Z,14.10
2018-12-21T17:58:54.781Z,14.10
2018-12-21T18:01:22.979Z,14.10
2018-12-21T18:03:52.732Z,14.10
2018-12-21T18:06:20.866Z,14.10
2018-12-21T18:08:48.967Z,14.10
2018-12-21T18:11:17.079Z,14.10
2018-12-21T18:13:45.190Z,14.20
2018-12-21T18:16:13.300Z,14.20
2018-12-21T18:18:41.406Z,14.20
2018-12-21T18:21:09.518Z,14.20
2018-12-21T18:23:37.785Z,14.20
2018-12-21T18:26:05.898Z,14.20
2018-12-21T18:28:33.993Z,14.20
2018-12-21T18:31:08.057Z,14.20
2018-12-21T18:33:36.159Z,14.20
2018-12-21T18:36:04.271Z,14.20
2018-12-21T18:38:32.375Z,14.20
2018-12-21T18:41:00.548Z,14.30
2018-12-21T18:43:28.654Z,14.30
2018-12-21T18:45:56.845Z,14.30
2018-12-21T18:48:24.967Z,14.30
2018-12-21T18:50:53.092Z,14.30
2018-12-21T18:53:21.211Z,14.30
2018-12-21T18:55:49.340Z,14.30
2018-12-21T18:58:17.570Z,14.30
2018-12-21T19:00:45.713Z,14.30
2018-12-21T19:03:13.824Z,14.30
2018-12-21T19:05:41.940Z,14.30
2018-12-21T19:08:10.060Z,14.30
2018-12-21T19:10:38.187Z,14.30
2018-12-21T19:13:06.305Z,14.40
2018-12-21T19:15:34.427Z,14.30
2018-12-21T19:18:02.541Z,14.40
2018-12-21T19:20:30.673Z,14.40
2018-12-21T19:22:58.797Z,14.40
2018-12-21T19:25:26.896Z,14.40
2018-12-21T19:27:55.018Z,14.40
2018-12-21T19:30:25.079Z,14.40
2018-12-21T19:32:53.373Z,14.40
2018-12-21T19:35:27.620Z,14.40
2018-12-21T19:37:51.680Z,14.40
2018-12-21T19:40:19.810Z,14.40
2018-12-21T19:42:47.923Z,14.40
2018-12-21T19:45:16.467Z,14.40
2018-12-21T19:47:44.587Z,14.40
2018-12-21T19:50:12.704Z,14.40
2018-12-21T19:52:40.830Z,14.40
2018-12-21T19:55:16.871Z,14.40
2018-12-21T19:57:44.988Z,14.40
2018-12-21T20:00:13.123Z,14.40
2018-12-21T20:02:41.254Z,14.40
2018-12-21T20:05:09.370Z,14.40
2018-12-21T20:07:37.479Z,14.40
2018-12-21T20:10:08.833Z,14.40
2018-12-21T20:12:36.958Z,14.40
2018-12-21T20:15:07.004Z,14.40
2018-12-21T20:17:35.223Z,14.40
2018-12-21T20:20:03.362Z,14.40
2018-12-21T20:22:31.477Z,14.40
2018-12-21T20:24:59.586Z,14.50
2018-12-21T20:27:27.880Z,14.40
2018-12-21T20:29:55.992Z,14.50
2018-12-21T20:32:24.137Z,14.50
2018-12-21T20:34:52.235Z,14.50
2018-12-21T20:37:20.371Z,14.50
2018-12-21T20:39:48.474Z,14.50
2018-12-21T20:42:16.588Z,14.50
2018-12-21T20:44:44.694Z,14.50
2018-12-21T20:47:12.928Z,14.50
2018-12-21T20:49:41.028Z,14.50
2018-12-21T20:52:09.142Z,14.50
2018-12-21T20:54:37.275Z,14.50
2018-12-21T20:57:05.391Z,14.50
2018-12-21T20:59:33.498Z,14.50
2018-12-21T21:02:01.615Z,14.50
2018-12-21T21:04:29.720Z,14.50
2018-12-21T21:06:57.918Z,14.50
2018-12-21T21:09:26.027Z,14.50
2018-12-21T21:11:54.231Z,14.50
2018-12-21T21:14:22.394Z,14.50
2018-12-21T21:16:50.529Z,14.50
2018-12-21T21:19:18.648Z,14.50
2018-12-21T21:21:46.785Z,14.50
2018-12-21T21:24:14.902Z,14.50
2018-12-21T21:26:43.036Z,14.50
2018-12-21T21:29:11.150Z,14.50
2018-12-21T21:31:39.559Z,14.50
2018-12-21T21:34:07.675Z,14.50
2018-12-21T21:36:35.789Z,14.50
2018-12-21T21:39:05.539Z,14.50
2018-12-21T21:41:33.643Z,14.50
2018-12-21T21:44:01.764Z,14.50
2018-12-21T21:46:29.866Z,14.50
2018-12-21T21:48:57.995Z,14.50
2018-12-21T21:51:26.111Z,14.50
2018-12-21T21:53:54.228Z,14.40
2018-12-21T21:56:22.348Z,14.50
2018-12-21T21:58:50.471Z,14.50
2018-12-21T22:01:18.583Z,14.50
2018-12-21T22:03:46.722Z,14.50
2018-12-21T22:06:14.840Z,14.50
2018-12-21T22:08:42.965Z,14.50
2018-12-21T22:11:11.222Z,14.50
2018-12-21T22:13:39.356Z,14.50
2018-12-21T22:16:07.470Z,14.50
2018-12-21T22:18:35.593Z,14.50
2018-12-21T22:21:03.723Z,14.50
2018-12-21T22:23:31.846Z,14.50
2018-12-21T22:25:59.955Z,14.50
2018-12-21T22:28:28.079Z,14.50
2018-12-21T22:30:56.218Z,14.50
2018-12-21T22:33:24.344Z,14.50
2018-12-21T22:35:52.461Z,14.50
2018-12-21T22:38:20.588Z,14.50
2018-12-21T22:40:48.700Z,14.50
2018-12-21T22:43:16.825Z,14.50
2018-12-21T22:45:44.947Z,14.60
2018-12-21T22:48:13.067Z,14.50
2018-12-21T22:50:41.178Z,14.50
2018-12-21T22:53:09.292Z,14.50
2018-12-21T22:55:37.402Z,14.50
2018-12-21T22:58:05.535Z,14.50
2018-12-21T23:00:35.659Z,14.50
2018-12-21T23:03:03.909Z,14.50
2018-12-21T23:05:32.046Z,14.50
2018-12-21T23:08:00.170Z,14.50
2018-12-21T23:10:28.323Z,14.60
2018-12-21T23:12:56.450Z,14.50
2018-12-21T23:15:24.557Z,14.50
2018-12-21T23:17:52.675Z,14.60
2018-12-21T23:20:20.782Z,14.50
2018-12-21T23:22:48.901Z,14.60
2018-12-21T23:25:17.784Z,14.60
2018-12-21T23:27:45.910Z,14.60
2018-12-21T23:30:14.018Z,14.60
2018-12-21T23:32:42.130Z,14.60
2018-12-21T23:35:10.256Z,14.60
2018-12-21T23:37:38.387Z,14.60
2018-12-21T23:40:07.244Z,14.60
2018-12-21T23:42:35.352Z,14.60
2018-12-21T23:45:03.735Z,14.60
2018-12-21T23:47:31.854Z,14.70
2018-12-21T23:50:00.010Z,14.70
2018-12-21T23:52:28.207Z,14.70
2018-12-21T23:54:56.350Z,14.70
2018-12-21T23:57:24.456Z,14.70
2018-12-21T23:59:52.690Z,14.70
